createdAt,value
2018-08-23T00:02:24.844Z,56.74
2018-08-23T00:07:19.636Z,56.19
2018-08-23T00:12:14.321Z,56.60
2018-08-23T00:17:08.962Z,55.84
2018-08-23T00:22:04.338Z,55.15
2018-08-23T00:27:00.331Z,55.73
2018-08-23T00:32:00.342Z,55.99
2018-08-23T00:36:56.861Z,56.05
2018-08-23T00:41:56.843Z,57.16
2018-08-23T00:46:53.180Z,57.05
2018-08-23T00:51:48.116Z,56.91
2018-08-23T00:56:43.285Z,56.17
2018-08-23T01:01:38.096Z,57.60
2018-08-23T01:06:44.116Z,57.03
2018-08-23T01:11:39.353Z,58.28
2018-08-23T01:16:34.095Z,57.83
2018-08-23T01:21:28.773Z,58.95
2018-08-23T01:26:23.509Z,58.85
2018-08-23T01:31:29.428Z,57.86
2018-08-23T01:36:30.171Z,59.36
2018-08-23T01:41:24.816Z,59.13
2018-08-23T01:46:19.516Z,59.05
2018-08-23T01:51:14.243Z,57.90
2018-08-23T01:56:10.263Z,58.89
2018-08-23T02:01:14.161Z,58.62
2018-08-23T02:06:08.884Z,58.95
2018-08-23T02:11:03.597Z,59.35
2018-08-23T02:16:03.307Z,60.16
2018-08-23T02:21:02.032Z,59.39
2018-08-23T02:25:56.713Z,60.51
2018-08-23T02:30:56.134Z,60.68
2018-08-23T02:36:22.241Z,60.32
2018-08-23T02:41:17.444Z,60.28
2018-08-23T02:46:12.118Z,61.08
2018-08-23T02:51:07.193Z,60.56
2018-08-23T02:56:09.565Z,60.28
2018-08-23T03:01:06.571Z,60.02
2018-08-23T03:06:07.802Z,59.41
2018-08-23T03:11:02.430Z,59.42
2018-08-23T03:15:57.100Z,59.70
2018-08-23T03:21:05.512Z,59.90
2018-08-23T03:26:00.183Z,60.08
2018-08-23T03:31:02.930Z,59.61
2018-08-23T03:35:57.628Z,60.83
2018-08-23T03:40:52.316Z,59.51
2018-08-23T03:45:46.945Z,60.44
2018-08-23T03:55:50.503Z,60.25
2018-08-23T04:01:06.592Z,60.68
2018-08-23T04:06:20.169Z,61.47
2018-08-23T04:11:14.976Z,60.93
2018-08-23T04:16:09.651Z,62.02
2018-08-23T04:21:04.421Z,62.30
2018-08-23T04:25:59.071Z,62.49
2018-08-23T04:30:53.780Z,63.09
2018-08-23T04:35:48.449Z,62.64
2018-08-23T04:41:00.099Z,63.32
2018-08-23T04:45:55.001Z,62.10
2018-08-23T04:50:49.954Z,62.95
2018-08-23T04:55:44.699Z,64.37
2018-08-23T05:00:39.371Z,63.64
2018-08-23T05:05:34.080Z,63.61
2018-08-23T05:10:28.726Z,64.43
2018-08-23T05:15:23.393Z,65.01
2018-08-23T05:20:18.117Z,65.18
2018-08-23T05:25:16.630Z,63.05
2018-08-23T05:30:14.160Z,65.13
2018-08-23T05:35:08.927Z,64.76
2018-08-23T05:40:03.627Z,65.39
2018-08-23T05:44:58.317Z,64.77
2018-08-23T05:49:52.965Z,63.81
2018-08-23T05:54:47.627Z,64.29
2018-08-23T05:59:42.348Z,64.01
2018-08-23T06:04:43.601Z,62.81
2018-08-23T06:09:38.448Z,64.10
2018-08-23T06:14:33.157Z,63.51
2018-08-23T06:19:28.868Z,63.71
2018-08-23T06:24:27.694Z,62.13
2018-08-23T06:29:25.112Z,61.17
2018-08-23T06:34:20.527Z,61.70
2018-08-23T06:39:15.316Z,61.83
2018-08-23T06:44:09.985Z,59.68
2018-08-23T06:49:04.772Z,59.46
2018-08-23T07:00:00.515Z,56.91
2018-08-23T07:04:55.178Z,57.19
2018-08-23T07:09:49.875Z,56.74
2018-08-23T07:14:46.830Z,57.38
2018-08-23T07:19:41.554Z,57.93
2018-08-23T07:24:50.260Z,57.09
2018-08-23T07:29:47.689Z,59.60
2018-08-23T07:34:50.596Z,60.34
2018-08-23T07:39:50.751Z,59.00
2018-08-23T07:44:45.392Z,55.98
2018-08-23T07:49:40.511Z,56.59
2018-08-23T07:54:35.162Z,55.51
2018-08-23T07:59:30.693Z,53.58
2018-08-23T08:04:25.419Z,52.06
2018-08-23T08:09:27.691Z,51.74
2018-08-23T08:14:27.624Z,49.59
2018-08-23T08:19:22.322Z,50.40
2018-08-23T08:24:17.035Z,48.86
2018-08-23T08:29:13.609Z,47.93
2018-08-23T08:34:08.280Z,49.80
2018-08-23T08:39:05.088Z,48.42
2018-08-23T08:43:59.823Z,48.40
2018-08-23T08:48:54.456Z,49.60
2018-08-23T08:53:49.209Z,47.83
2018-08-23T08:58:44.098Z,47.46
2018-08-23T09:03:39.321Z,46.94
2018-08-23T09:08:34.447Z,45.92
2018-08-23T09:13:34.365Z,46.36
2018-08-23T09:18:29.116Z,46.67
2018-08-23T09:23:24.838Z,45.94
2018-08-23T09:28:21.169Z,46.14
2018-08-23T09:33:20.979Z,46.03
2018-08-23T09:38:16.186Z,44.71
2018-08-23T09:43:10.970Z,43.36
2018-08-23T09:48:05.965Z,42.32
2018-08-23T09:53:00.616Z,43.75
2018-08-23T09:57:55.383Z,43.75
2018-08-23T10:02:55.110Z,45.64
2018-08-23T10:07:55.114Z,47.05
2018-08-23T10:12:55.209Z,44.83
2018-08-23T10:17:56.199Z,45.35
2018-08-23T10:23:04.425Z,46.43
2018-08-23T10:27:59.533Z,45.83
2018-08-23T10:32:54.291Z,45.68
2018-08-23T10:37:48.972Z,47.16
2018-08-23T10:42:43.878Z,47.03
2018-08-23T10:47:43.827Z,44.09
2018-08-23T10:52:38.532Z,42.66
2018-08-23T10:57:33.280Z,39.73
2018-08-23T11:02:27.981Z,39.96
2018-08-23T11:07:26.797Z,41.97
2018-08-23T11:12:26.536Z,41.77
2018-08-23T11:17:26.576Z,40.60
2018-08-23T11:22:25.390Z,42.79
2018-08-23T11:27:20.131Z,41.61
2018-08-23T11:32:15.185Z,42.47
2018-08-23T11:37:09.815Z,40.89
2018-08-23T11:42:04.550Z,39.61
2018-08-23T11:46:59.132Z,40.82
2018-08-23T11:51:54.805Z,41.46
2018-08-23T11:56:49.648Z,41.92
2018-08-23T12:01:44.431Z,40.21
2018-08-23T12:06:39.351Z,39.68
2018-08-23T12:11:34.048Z,39.65
2018-08-23T12:16:28.998Z,42.37
2018-08-23T12:21:24.499Z,38.92
2018-08-23T12:26:19.408Z,40.41
2018-08-23T12:31:14.057Z,39.55
2018-08-23T12:36:11.915Z,40.29
2018-08-23T12:41:12.259Z,43.77
2018-08-23T12:46:06.988Z,46.09
2018-08-23T12:51:01.709Z,45.53
2018-08-23T12:55:56.452Z,45.90
2018-08-23T13:00:51.688Z,46.03
2018-08-23T13:05:46.459Z,45.51
2018-08-23T13:10:41.535Z,46.12
2018-08-23T13:15:36.456Z,46.06
2018-08-23T13:20:31.584Z,44.73
2018-08-23T13:25:26.421Z,44.13
2018-08-23T13:30:21.521Z,45.91
2018-08-23T13:35:16.501Z,46.34
2018-08-23T13:40:16.997Z,48.03
2018-08-23T13:45:12.096Z,47.24
2018-08-23T13:50:07.167Z,46.64
2018-08-23T13:55:06.308Z,43.22
2018-08-23T14:00:08.387Z,67.22
2018-08-23T14:05:03.414Z,82.02
2018-08-23T14:09:58.379Z,92.80
2018-08-23T14:15:00.055Z,86.00
2018-08-23T14:19:55.406Z,85.97
2018-08-23T14:24:50.285Z,95.80
2018-08-23T14:29:45.023Z,93.19
2018-08-23T14:34:39.832Z,94.09
2018-08-23T14:39:34.843Z,97.22
2018-08-23T14:44:29.787Z,100.00
2018-08-23T14:49:29.797Z,100.00
2018-08-23T14:54:29.956Z,100.00
2018-08-23T14:59:24.862Z,98.82
2018-08-23T15:04:20.562Z,93.29
2018-08-23T15:09:15.310Z,94.65
2018-08-23T15:14:10.267Z,100.00
2018-08-23T15:19:05.607Z,100.00
2018-08-23T15:24:00.452Z,99.76
2018-08-23T15:28:55.279Z,97.88
2018-08-23T15:33:50.150Z,97.80
2018-08-23T15:38:44.971Z,98.79
2018-08-23T15:43:39.800Z,97.53
2018-08-23T15:48:34.511Z,100.00
2018-08-23T15:53:29.259Z,98.50
2018-08-23T15:58:23.988Z,98.55
2018-08-23T16:03:18.695Z,96.99
2018-08-23T16:08:13.369Z,97.44
2018-08-23T16:13:08.189Z,97.08
2018-08-23T16:18:08.116Z,98.19
2018-08-23T16:23:03.137Z,93.92
2018-08-23T16:27:57.899Z,94.72
2018-08-23T16:32:52.594Z,94.22
2018-08-23T16:37:47.266Z,93.95
2018-08-23T16:42:42.067Z,95.70
2018-08-23T16:47:36.832Z,94.23
2018-08-23T16:52:31.551Z,93.52
2018-08-23T16:57:26.269Z,91.44
2018-08-23T17:02:20.989Z,89.58
2018-08-23T17:07:16.905Z,89.75
2018-08-23T17:12:11.939Z,89.24
2018-08-23T17:17:11.862Z,88.40
2018-08-23T17:22:06.659Z,86.98
2018-08-23T17:27:01.504Z,86.96
2018-08-23T17:31:56.179Z,88.74
2018-08-23T17:36:50.968Z,87.56
2018-08-23T17:41:45.621Z,85.83
2018-08-23T17:46:40.377Z,86.10
2018-08-23T17:51:35.154Z,86.77
2018-08-23T17:56:30.260Z,87.01
2018-08-23T18:01:25.030Z,85.48
2018-08-23T18:06:19.827Z,86.38
2018-08-23T18:11:14.621Z,86.83
2018-08-23T18:16:14.404Z,86.12
2018-08-23T18:21:09.164Z,88.19
2018-08-23T18:26:04.112Z,87.79
2018-08-23T18:30:59.011Z,87.83
2018-08-23T18:35:54.027Z,89.32
2018-08-23T18:40:48.821Z,89.20
2018-08-23T18:45:43.656Z,88.19
2018-08-23T18:55:44.944Z,88.34
2018-08-23T19:00:39.875Z,88.87
2018-08-23T19:05:35.204Z,88.82
2018-08-23T19:10:30.286Z,89.36
2018-08-23T19:15:31.186Z,87.87
2018-08-23T19:20:26.037Z,88.75
2018-08-23T19:25:20.986Z,88.58
2018-08-23T19:30:16.412Z,89.47
2018-08-23T19:35:11.465Z,90.23
2018-08-23T19:40:06.470Z,90.21
2018-08-23T19:45:02.598Z,89.27
2018-08-23T19:49:58.679Z,88.65
2018-08-23T19:54:53.637Z,87.73
2018-08-23T19:59:48.589Z,88.98
2018-08-23T20:04:43.977Z,87.58
2018-08-23T20:09:39.279Z,87.78
2018-08-23T20:14:34.242Z,85.60
2018-08-23T20:19:29.493Z,86.78
2018-08-23T20:24:24.607Z,87.93
2018-08-23T20:29:21.344Z,88.61
2018-08-23T20:34:16.373Z,88.96
2018-08-23T20:39:13.882Z,88.75
2018-08-23T20:44:09.983Z,87.56
2018-08-23T20:49:04.988Z,88.52
2018-08-23T20:53:59.916Z,87.45
2018-08-23T20:58:55.156Z,88.24
2018-08-23T21:03:50.116Z,88.66
2018-08-23T21:08:45.009Z,88.72
2018-08-23T21:13:43.418Z,89.03
2018-08-23T21:18:40.984Z,89.29
2018-08-23T21:23:37.740Z,90.02
2018-08-23T21:28:32.913Z,89.17
2018-08-23T21:33:27.815Z,89.40
2018-08-23T21:38:22.712Z,90.73
2018-08-23T21:43:17.647Z,90.14
2018-08-23T21:48:12.573Z,89.12
2018-08-23T21:53:07.628Z,89.00
2018-08-23T21:58:02.704Z,90.19
2018-08-23T22:02:57.641Z,90.94
2018-08-23T22:07:53.602Z,89.25
2018-08-23T22:12:48.406Z,88.00
2018-08-23T22:17:43.527Z,91.75
2018-08-23T22:22:39.568Z,93.70
2018-08-23T22:27:34.884Z,95.20
2018-08-23T22:32:30.892Z,94.44
2018-08-23T22:37:26.231Z,93.66
2018-08-23T22:42:21.132Z,92.93
2018-08-23T22:47:16.008Z,95.21
2018-08-23T22:52:11.176Z,95.66
2018-08-23T22:57:06.134Z,95.32
2018-08-23T23:02:01.110Z,95.44
2018-08-23T23:06:56.329Z,94.13
2018-08-23T23:11:51.612Z,94.11
2018-08-23T23:16:46.586Z,93.63
2018-08-23T23:21:46.281Z,91.97
2018-08-23T23:26:41.172Z,92.19
2018-08-23T23:31:35.976Z,90.59
2018-08-23T23:36:30.793Z,92.31
2018-08-23T23:41:25.569Z,89.22
2018-08-23T23:46:21.061Z,89.36
2018-08-23T23:51:15.936Z,89.45
2018-08-23T23:56:10.783Z,86.24
